Time;durP1;ratioP1;P1;durP2;ratioP2;P2;SDS_P1;SDS_P2;PMS_P1;PMS_P2;Temp;Humidity;BMP_temperature;BMP_pressure;BME280_temperature;BME280_humidity;BME280_pressure;Samples;Min_cycle;Max_cycle;Signal;HPM_P1;HPM_P2
2021/08/08 00:01:03;;;;;;;15.95;3.03;;;;;;;;;;5135902;27;20015;-72
2021/08/08 00:03:29;;;;;;;6.90;2.97;;;;;;;;;;5135943;27;20023;-72
2021/08/08 00:05:56;;;;;;;16.08;2.83;;;;;;;;;;5135860;27;20034;-72
2021/08/08 00:08:25;;;;;;;9.90;3.20;;;;;;;;;;5135802;27;20498;-73
2021/08/08 00:10:51;;;;;;;8.52;2.53;;;;;;;;;;5135498;27;20079;-71
2021/08/08 00:13:17;;;;;;;9.55;2.70;;;;;;;;;;5135678;27;20027;-69
2021/08/08 00:15:44;;;;;;;22.42;2.60;;;;;;;;;;5117171;27;20087;-72
2021/08/08 00:18:10;;;;;;;7.90;2.33;;;;;;;;;;5135516;27;20054;-72
2021/08/08 00:20:36;;;;;;;5.18;2.60;;;;;;;;;;5135635;27;20038;-71
2021/08/08 00:23:03;;;;;;;5.50;2.20;;;;;;;;;;5116909;27;20122;-72
2021/08/08 00:28:33;;;;;;;8.10;2.40;;;;;;;;;;5135728;27;20058;-71
2021/08/08 00:30:59;;;;;;;4.38;2.08;;;;;;;;;;5116933;27;20114;-71
2021/08/08 00:33:25;;;;;;;5.07;2.53;;;;;;;;;;5135324;27;20231;-73
2021/08/08 00:35:52;;;;;;;5.75;2.40;;;;;;;;;;5135325;27;20051;-70
2021/08/08 00:38:18;;;;;;;4.10;2.17;;;;;;;;;;5116772;27;20023;-70
2021/08/08 00:40:44;;;;;;;5.78;2.35;;;;;;;;;;5116823;27;20019;-71
2021/08/08 00:43:11;;;;;;;6.18;2.00;;;;;;;;;;5134790;27;20436;-72
2021/08/08 00:45:37;;;;;;;4.22;2.10;;;;;;;;;;5135357;27;20471;-72
2021/08/08 00:48:04;;;;;;;4.53;2.10;;;;;;;;;;5135044;27;20112;-72
2021/08/08 00:50:31;;;;;;;3.63;2.35;;;;;;;;;;5112539;28;20047;-71
2021/08/08 00:52:57;;;;;;;2.83;1.90;;;;;;;;;;5114641;28;20484;-71
2021/08/08 00:55:23;;;;;;;5.40;2.28;;;;;;;;;;5114370;28;20024;-70
2021/08/08 00:57:49;;;;;;;5.93;2.58;;;;;;;;;;5114309;28;20035;-70
2021/08/08 01:00:16;;;;;;;6.43;2.20;;;;;;;;;;5114622;28;20023;-71
2021/08/08 01:02:53;;;;;;;6.57;2.10;;;;;;;;;;5114169;28;20032;-70
2021/08/08 01:05:22;;;;;;;4.00;2.38;;;;;;;;;;5112924;28;20030;-71
2021/08/08 01:07:51;;;;;;;5.72;1.88;;;;;;;;;;5114117;28;20073;-70
2021/08/08 01:10:18;;;;;;;2.75;2.10;;;;;;;;;;5114368;28;20026;-73
2021/08/08 01:12:45;;;;;;;5.53;2.47;;;;;;;;;;5113977;28;20028;-72
2021/08/08 01:15:11;;;;;;;5.57;2.30;;;;;;;;;;5114273;28;20035;-72
2021/08/08 01:17:38;;;;;;;7.63;2.10;;;;;;;;;;5113960;28;20046;-73
2021/08/08 01:20:09;;;;;;;4.22;2.42;;;;;;;;;;5112581;28;20019;-72
2021/08/08 01:22:35;;;;;;;6.95;2.17;;;;;;;;;;5113880;28;20031;-71
2021/08/08 01:25:03;;;;;;;5.40;2.28;;;;;;;;;;5114095;28;20495;-73
2021/08/08 01:27:29;;;;;;;7.43;2.30;;;;;;;;;;5112429;28;20536;-73
2021/08/08 01:29:56;;;;;;;4.50;2.30;;;;;;;;;;5113224;28;20110;-73
2021/08/08 01:32:23;;;;;;;5.95;2.78;;;;;;;;;;5114038;28;20365;-72
2021/08/08 01:34:49;;;;;;;4.28;2.65;;;;;;;;;;5112442;28;20023;-70
2021/08/08 01:37:20;;;;;;;7.00;2.50;;;;;;;;;;5112342;28;20020;-70
2021/08/08 01:39:49;;;;;;;6.50;2.65;;;;;;;;;;5112362;28;20107;-70
2021/08/08 01:42:16;;;;;;;3.30;2.33;;;;;;;;;;5111981;28;20069;-71
2021/08/08 01:44:46;;;;;;;3.60;2.50;;;;;;;;;;5113632;28;20072;-71
2021/08/08 01:47:13;;;;;;;3.55;2.60;;;;;;;;;;5112247;28;20115;-70
2021/08/08 01:49:43;;;;;;;7.88;2.60;;;;;;;;;;5122432;28;20118;-72
2021/08/08 01:52:09;;;;;;;5.85;2.75;;;;;;;;;;5133997;27;20041;-72
2021/08/08 01:54:36;;;;;;;4.68;2.50;;;;;;;;;;5133991;28;20031;-70
2021/08/08 01:57:02;;;;;;;8.05;2.90;;;;;;;;;;5133715;28;20098;-70
2021/08/08 01:59:29;;;;;;;11.27;2.80;;;;;;;;;;5134188;28;20098;-72
2021/08/08 02:01:55;;;;;;;6.80;2.72;;;;;;;;;;5133935;28;20074;-70
2021/08/08 02:04:25;;;;;;;6.68;2.80;;;;;;;;;;5115492;28;20494;-72
2021/08/08 02:06:52;;;;;;;5.47;2.53;;;;;;;;;;5133928;28;20015;-72
2021/08/08 02:09:19;;;;;;;5.95;2.53;;;;;;;;;;5115368;28;20051;-71
2021/08/08 02:11:45;;;;;;;4.47;2.65;;;;;;;;;;5133925;28;20062;-72
2021/08/08 02:14:12;;;;;;;3.55;2.38;;;;;;;;;;5115329;28;20011;-74
2021/08/08 02:16:39;;;;;;;4.22;2.75;;;;;;;;;;5133809;28;20016;-74
2021/08/08 02:19:05;;;;;;;12.25;3.33;;;;;;;;;;5133747;28;20030;-71
2021/08/08 02:21:32;;;;;;;11.15;3.30;;;;;;;;;;5133681;28;20032;-71
2021/08/08 02:23:58;;;;;;;11.02;3.00;;;;;;;;;;5133466;28;20388;-71
2021/08/08 02:26:24;;;;;;;8.55;2.97;;;;;;;;;;5133752;28;20023;-71
2021/08/08 02:28:50;;;;;;;8.80;2.50;;;;;;;;;;5133997;28;20023;-71
2021/08/08 02:31:18;;;;;;;3.67;2.70;;;;;;;;;;5133719;28;20088;-71
2021/08/08 02:33:45;;;;;;;4.85;2.97;;;;;;;;;;5133709;28;20407;-70
2021/08/08 02:36:11;;;;;;;7.35;2.80;;;;;;;;;;5133656;28;20051;-72
2021/08/08 02:38:37;;;;;;;5.57;2.60;;;;;;;;;;5133614;28;20110;-72
2021/08/08 02:41:04;;;;;;;5.70;2.40;;;;;;;;;;5134687;27;20095;-71
2021/08/08 02:43:30;;;;;;;9.20;3.17;;;;;;;;;;5137483;27;20020;-72
2021/08/08 02:45:56;;;;;;;9.38;2.72;;;;;;;;;;5118946;27;20480;-72
2021/08/08 02:48:22;;;;;;;7.55;3.13;;;;;;;;;;5118940;27;20118;-72
2021/08/08 02:50:48;;;;;;;6.03;2.88;;;;;;;;;;5118757;27;20126;-71
2021/08/08 02:53:15;;;;;;;6.35;3.42;;;;;;;;;;5137228;27;20628;-71
2021/08/08 02:55:41;;;;;;;5.82;3.35;;;;;;;;;;5136952;27;20566;-71
2021/08/08 02:58:07;;;;;;;9.18;4.30;;;;;;;;;;5118731;27;20050;-71
2021/08/08 03:00:33;;;;;;;9.48;5.88;;;;;;;;;;5137146;27;20049;-72
2021/08/08 03:02:59;;;;;;;5.38;4.28;;;;;;;;;;5118659;27;20031;-71
2021/08/08 03:05:26;;;;;;;9.63;4.68;;;;;;;;;;5137068;27;20152;-71
2021/08/08 03:07:52;;;;;;;15.75;5.45;;;;;;;;;;5118538;27;20047;-72
2021/08/08 03:10:19;;;;;;;9.48;4.90;;;;;;;;;;5136959;27;20163;-71
2021/08/08 03:12:45;;;;;;;8.43;4.22;;;;;;;;;;5137067;27;20114;-72
2021/08/08 03:15:11;;;;;;;6.10;3.90;;;;;;;;;;5136855;27;20496;-71
2021/08/08 03:17:37;;;;;;;10.77;4.57;;;;;;;;;;5136841;27;20062;-71
2021/08/08 03:20:04;;;;;;;5.57;3.70;;;;;;;;;;5118305;27;20410;-71
2021/08/08 03:22:30;;;;;;;8.82;3.60;;;;;;;;;;5136717;27;20040;-71
2021/08/08 03:24:56;;;;;;;15.20;3.85;;;;;;;;;;5118261;27;20114;-71
2021/08/08 03:27:23;;;;;;;5.88;3.53;;;;;;;;;;5118178;27;20544;-70
2021/08/08 03:29:49;;;;;;;8.35;3.95;;;;;;;;;;5118091;27;20019;-72
2021/08/08 03:32:15;;;;;;;8.00;3.90;;;;;;;;;;5136600;27;20079;-71
2021/08/08 03:34:41;;;;;;;11.50;4.00;;;;;;;;;;5118111;27;20112;-72
2021/08/08 03:37:08;;;;;;;8.98;4.28;;;;;;;;;;5136716;27;20114;-71
2021/08/08 03:39:34;;;;;;;11.52;3.67;;;;;;;;;;5136056;27;20027;-71
2021/08/08 03:42:00;;;;;;;6.35;3.90;;;;;;;;;;5136331;27;20034;-70
2021/08/08 03:44:27;;;;;;;12.13;4.40;;;;;;;;;;5117915;27;20015;-71
2021/08/08 03:46:53;;;;;;;4.97;3.78;;;;;;;;;;5136269;27;20023;-69
2021/08/08 03:49:19;;;;;;;14.80;4.90;;;;;;;;;;5117414;27;20088;-71
2021/08/08 03:51:47;;;;;;;8.38;3.67;;;;;;;;;;5116936;27;20568;-72
2021/08/08 03:54:13;;;;;;;7.60;4.70;;;;;;;;;;5136184;27;20023;-70
2021/08/08 03:56:39;;;;;;;10.00;4.43;;;;;;;;;;5135783;27;20126;-72
2021/08/08 03:59:05;;;;;;;9.68;4.35;;;;;;;;;;5117544;27;20023;-71
2021/08/08 04:01:32;;;;;;;9.93;3.95;;;;;;;;;;5135959;27;20031;-71
2021/08/08 04:03:58;;;;;;;10.00;4.47;;;;;;;;;;5135812;27;20144;-70
2021/08/08 04:06:24;;;;;;;9.90;3.92;;;;;;;;;;5117791;27;20027;-71
2021/08/08 04:08:50;;;;;;;9.45;3.97;;;;;;;;;;5117526;27;20114;-71
2021/08/08 04:11:16;;;;;;;11.57;4.68;;;;;;;;;;5135766;27;20031;-70
2021/08/08 04:13:43;;;;;;;12.95;4.32;;;;;;;;;;5135768;27;20026;-70
2021/08/08 04:16:09;;;;;;;10.50;4.75;;;;;;;;;;5135715;27;20012;-71
2021/08/08 04:18:35;;;;;;;7.30;4.10;;;;;;;;;;5135670;27;20491;-71
2021/08/08 04:21:02;;;;;;;11.20;4.88;;;;;;;;;;5117167;27;20157;-71
2021/08/08 04:23:28;;;;;;;12.95;4.35;;;;;;;;;;5135550;27;19938;-71
2021/08/08 04:25:54;;;;;;;9.68;4.32;;;;;;;;;;5135481;27;20023;-71
2021/08/08 04:28:20;;;;;;;7.93;5.10;;;;;;;;;;5135495;27;20126;-71
2021/08/08 04:30:47;;;;;;;10.95;4.70;;;;;;;;;;5135426;27;20044;-70
2021/08/08 04:33:13;;;;;;;9.90;4.95;;;;;;;;;;5135352;27;20065;-71
2021/08/08 04:35:39;;;;;;;9.82;4.68;;;;;;;;;;5134978;27;20543;-71
2021/08/08 04:38:06;;;;;;;7.70;5.30;;;;;;;;;;5116784;27;20118;-71
2021/08/08 04:40:33;;;;;;;17.10;5.40;;;;;;;;;;5135049;27;20019;-71
2021/08/08 04:42:59;;;;;;;11.30;4.88;;;;;;;;;;5134711;27;20023;-71
2021/08/08 04:45:26;;;;;;;9.00;5.30;;;;;;;;;;5135116;27;20023;-71
2021/08/08 04:47:52;;;;;;;8.55;4.78;;;;;;;;;;5134869;27;20054;-70
2021/08/08 04:50:19;;;;;;;9.68;4.65;;;;;;;;;;5134996;27;20107;-70
2021/08/08 04:52:46;;;;;;;13.93;4.22;;;;;;;;;;5135046;27;20019;-70
2021/08/08 04:55:13;;;;;;;15.82;4.68;;;;;;;;;;5134929;27;20096;-70
2021/08/08 04:57:39;;;;;;;13.43;4.90;;;;;;;;;;5116405;27;20118;-70
2021/08/08 05:00:06;;;;;;;8.25;4.47;;;;;;;;;;5134733;27;20023;-70
2021/08/08 05:02:32;;;;;;;14.48;4.60;;;;;;;;;;5116311;27;20019;-70
2021/08/08 05:04:58;;;;;;;14.32;4.55;;;;;;;;;;5115251;27;20099;-68
2021/08/08 05:07:24;;;;;;;11.40;4.82;;;;;;;;;;5134674;27;20027;-68
2021/08/08 05:09:50;;;;;;;7.82;3.97;;;;;;;;;;5116186;27;20474;-68
2021/08/08 05:12:17;;;;;;;7.75;4.05;;;;;;;;;;5114822;27;20024;-70
2021/08/08 05:14:43;;;;;;;8.77;3.80;;;;;;;;;;5110023;28;20129;-69
2021/08/08 05:17:10;;;;;;;24.52;5.47;;;;;;;;;;5134115;27;20102;-69
2021/08/08 05:19:36;;;;;;;5.57;3.58;;;;;;;;;;5134034;27;20019;-69
2021/08/08 05:22:02;;;;;;;5.47;3.38;;;;;;;;;;5134027;27;20031;-70
2021/08/08 05:24:28;;;;;;;5.80;3.42;;;;;;;;;;5115877;27;20046;-70
2021/08/08 05:26:56;;;;;;;9.90;4.05;;;;;;;;;;5115950;27;20043;-70
2021/08/08 05:29:23;;;;;;;9.32;3.25;;;;;;;;;;5134388;27;20115;-70
2021/08/08 05:31:50;;;;;;;12.80;3.78;;;;;;;;;;5134226;27;20016;-68
2021/08/08 05:34:17;;;;;;;8.63;3.60;;;;;;;;;;5116012;27;20466;-69
2021/08/08 05:36:43;;;;;;;7.25;3.78;;;;;;;;;;5133951;27;20458;-70
2021/08/08 05:39:09;;;;;;;11.75;3.70;;;;;;;;;;5134472;27;20023;-69
2021/08/08 05:41:35;;;;;;;5.60;3.20;;;;;;;;;;5134096;27;20141;-69
2021/08/08 05:44:01;;;;;;;12.80;3.40;;;;;;;;;;5134166;27;20034;-69
2021/08/08 05:46:28;;;;;;;12.77;3.42;;;;;;;;;;5134120;27;20058;-69
2021/08/08 05:48:54;;;;;;;11.60;3.45;;;;;;;;;;5133735;27;20098;-68
2021/08/08 05:51:20;;;;;;;19.63;3.53;;;;;;;;;;5133849;27;20110;-69
2021/08/08 05:53:46;;;;;;;9.77;3.65;;;;;;;;;;5134057;28;20019;-70
2021/08/08 05:56:12;;;;;;;13.68;4.55;;;;;;;;;;5133979;28;20102;-69
2021/08/08 05:58:38;;;;;;;11.45;3.83;;;;;;;;;;5134013;28;20094;-68
2021/08/08 06:01:05;;;;;;;5.80;3.50;;;;;;;;;;5115483;28;20029;-68
2021/08/08 06:03:31;;;;;;;10.95;3.85;;;;;;;;;;5133865;28;20115;-67
2021/08/08 06:05:57;;;;;;;18.15;4.40;;;;;;;;;;5133880;28;20038;-67
2021/08/08 06:08:23;;;;;;;16.52;4.18;;;;;;;;;;5134179;28;20121;-68
2021/08/08 06:10:50;;;;;;;9.95;4.18;;;;;;;;;;5134144;28;20023;-67
2021/08/08 06:13:16;;;;;;;9.27;4.43;;;;;;;;;;5115483;28;20023;-67
2021/08/08 06:15:42;;;;;;;8.15;4.47;;;;;;;;;;5136145;27;20019;-68
2021/08/08 06:18:10;;;;;;;10.48;4.45;;;;;;;;;;5138042;27;20138;-69
2021/08/08 06:20:36;;;;;;;11.90;4.00;;;;;;;;;;5119500;27;20092;-71
2021/08/08 06:23:03;;;;;;;9.30;4.03;;;;;;;;;;5137393;27;20022;-69
2021/08/08 06:25:29;;;;;;;19.20;3.90;;;;;;;;;;5137048;27;20364;-70
2021/08/08 06:27:55;;;;;;;9.15;3.67;;;;;;;;;;5137770;27;20107;-70
2021/08/08 06:30:21;;;;;;;7.13;3.80;;;;;;;;;;5119080;27;20495;-68
2021/08/08 06:32:47;;;;;;;9.52;3.78;;;;;;;;;;5137449;27;20031;-67
2021/08/08 06:35:14;;;;;;;8.02;3.63;;;;;;;;;;5137545;27;20207;-71
2021/08/08 06:37:43;;;;;;;15.68;4.38;;;;;;;;;;5119205;27;20020;-71
2021/08/08 06:40:10;;;;;;;7.72;4.07;;;;;;;;;;5137117;27;20011;-72
2021/08/08 06:42:36;;;;;;;19.25;4.20;;;;;;;;;;5129479;27;20031;-72
2021/08/08 06:45:03;;;;;;;16.63;4.05;;;;;;;;;;5115390;28;20031;-73
2021/08/08 06:47:29;;;;;;;10.05;4.40;;;;;;;;;;5117084;28;20112;-71
2021/08/08 06:49:55;;;;;;;14.77;4.53;;;;;;;;;;5116448;28;20048;-71
2021/08/08 06:52:22;;;;;;;11.70;4.32;;;;;;;;;;5116593;28;20076;-70
2021/08/08 06:54:48;;;;;;;11.02;4.03;;;;;;;;;;5115329;28;20123;-71
2021/08/08 06:57:27;;;;;;;20.65;4.35;;;;;;;;;;5116285;28;20034;-71
2021/08/08 06:59:54;;;;;;;17.75;4.78;;;;;;;;;;5116523;28;20041;-72
2021/08/08 07:02:21;;;;;;;13.65;5.38;;;;;;;;;;5116261;28;20104;-72
2021/08/08 07:04:47;;;;;;;12.60;6.28;;;;;;;;;;5116524;28;20551;-71
2021/08/08 07:07:15;;;;;;;13.40;6.72;;;;;;;;;;5115480;28;20051;-71
2021/08/08 07:09:41;;;;;;;10.57;5.78;;;;;;;;;;5134686;27;20023;-72
2021/08/08 07:12:08;;;;;;;8.00;4.78;;;;;;;;;;5118049;27;20034;-73
2021/08/08 07:14:35;;;;;;;12.32;5.15;;;;;;;;;;5118558;27;20110;-73
2021/08/08 07:17:02;;;;;;;21.13;6.53;;;;;;;;;;5136670;27;20023;-73
2021/08/08 07:19:28;;;;;;;13.82;6.40;;;;;;;;;;5136732;27;20024;-72
2021/08/08 07:21:54;;;;;;;13.88;5.82;;;;;;;;;;5136655;27;20676;-69
2021/08/08 07:24:21;;;;;;;10.05;5.75;;;;;;;;;;5118236;27;20050;-72
2021/08/08 07:26:47;;;;;;;9.93;5.28;;;;;;;;;;5135740;27;20102;-71
2021/08/08 07:29:13;;;;;;;10.20;4.82;;;;;;;;;;5136143;27;20102;-71
2021/08/08 07:31:40;;;;;;;12.38;5.30;;;;;;;;;;5117699;27;20019;-71
2021/08/08 07:34:06;;;;;;;17.92;4.97;;;;;;;;;;5108655;28;20023;-71
2021/08/08 07:36:32;;;;;;;18.65;5.25;;;;;;;;;;5115815;28;20022;-72
2021/08/08 07:38:58;;;;;;;16.85;6.30;;;;;;;;;;5115839;28;20099;-72
2021/08/08 07:41:24;;;;;;;15.98;7.80;;;;;;;;;;5115722;28;20414;-72
2021/08/08 07:43:51;;;;;;;12.10;6.60;;;;;;;;;;5115046;28;20031;-73
2021/08/08 07:46:17;;;;;;;13.02;5.47;;;;;;;;;;5097421;28;20411;-72
2021/08/08 07:48:45;;;;;;;9.65;4.85;;;;;;;;;;5115427;28;20071;-71
2021/08/08 07:51:11;;;;;;;11.18;5.80;;;27.20;71.30;;;;;;5115972;28;20110;-72
2021/08/08 07:53:37;;;;;;;11.70;6.47;;;27.40;73.30;;;;;;5115909;28;20099;-72
2021/08/08 07:56:04;;;;;;;7.15;4.88;;;27.60;73.60;;;;;;5115432;28;20020;-72
2021/08/08 07:58:29;;;;;;;11.07;4.55;;;27.70;71.00;;;;;;5115368;28;20028;-72
2021/08/08 08:00:55;;;;;;;9.63;4.97;;;27.90;71.10;;;;;;5097426;28;20164;-72
2021/08/08 08:03:21;;;;;;;12.23;4.53;;;28.00;71.10;;;;;;5115435;28;20028;-72
2021/08/08 08:05:47;;;;;;;8.27;4.13;;;28.10;70.90;;;;;;5115378;28;20036;-72
2021/08/08 08:08:13;;;;;;;9.45;4.20;;;28.30;71.00;;;;;;5115610;28;20345;-73
2021/08/08 08:10:39;;;;;;;7.55;4.82;;;28.40;70.30;;;;;;5115326;28;20022;-73
2021/08/08 08:13:05;;;;;;;7.13;4.50;;;28.60;71.20;;;;;;5115240;28;20374;-72
2021/08/08 08:15:32;;;;;;;5.95;4.20;;;28.70;91.00;;;;;;5096948;28;20024;-73
2021/08/08 08:17:58;;;;;;;5.97;4.78;;;29.00;85.40;;;;;;5096677;28;20414;-71
2021/08/08 08:20:24;;;;;;;5.43;3.78;;;29.10;70.00;;;;;;5115110;28;20023;-72
2021/08/08 08:22:50;;;;;;;5.60;4.15;;;29.30;69.30;;;;;;5114800;28;20028;-72
2021/08/08 08:25:17;;;;;;;8.90;4.80;;;29.50;70.70;;;;;;5096729;28;20031;-71
2021/08/08 08:27:43;;;;;;;6.63;4.25;;;29.70;70.50;;;;;;5114987;28;20118;-73
2021/08/08 08:30:10;;;;;;;6.38;4.05;;;29.80;68.20;;;;;;5114906;28;20027;-74
2021/08/08 08:32:37;;;;;;;8.25;4.80;;;29.90;68.90;;;;;;5114790;28;20027;-72
2021/08/08 08:35:04;;;;;;;6.72;4.35;;;;;;;;;;5114825;28;20073;-72
2021/08/08 08:37:31;;;;;;;7.15;3.88;;;30.10;66.80;;;;;;5114731;28;20030;-71
2021/08/08 08:39:58;;;;;;;11.15;4.80;;;30.40;65.00;;;;;;5096333;28;20039;-71
2021/08/08 08:42:28;;;;;;;9.70;4.60;;;30.50;65.20;;;;;;5114508;28;20502;-71
2021/08/08 08:44:54;;;;;;;8.27;4.75;;;30.70;65.50;;;;;;5114695;28;20517;-71
2021/08/08 08:47:22;;;;;;;5.35;4.70;;;30.80;69.20;;;;;;5114579;28;20055;-71
2021/08/08 08:49:49;;;;;;;9.63;4.95;;;;;;;;;;5114278;28;20507;-72
2021/08/08 08:52:20;;;;;;;6.88;3.80;;;;;;;;;;5114485;28;20036;-72
2021/08/08 08:54:46;;;;;;;4.72;4.20;;;;;;;;;;5114457;28;20024;-72
2021/08/08 08:57:14;;;;;;;6.47;3.95;;;31.50;93.50;;;;;;5095765;28;20031;-72
2021/08/08 08:59:40;;;;;;;7.32;4.22;;;31.60;62.10;;;;;;5095762;28;20032;-72
2021/08/08 09:02:06;;;;;;;5.70;4.15;;;31.90;61.40;;;;;;5095749;28;20035;-72
2021/08/08 09:04:32;;;;;;;5.55;4.30;;;31.90;60.00;;;;;;5114138;28;20035;-72
2021/08/08 09:06:58;;;;;;;7.18;3.92;;;;;;;;;;5113768;28;20024;-72
2021/08/08 09:09:24;;;;;;;4.43;3.80;;;32.30;58.70;;;;;;5112740;28;20016;-72
2021/08/08 09:11:51;;;;;;;6.90;4.00;;;32.40;58.20;;;;;;5113586;28;20491;-72
2021/08/08 09:14:17;;;;;;;4.45;3.45;;;32.60;57.80;;;;;;5114167;28;20106;-72
2021/08/08 09:16:48;;;;;;;4.32;3.58;;;32.70;56.60;;;;;;5113763;28;20157;-72
2021/08/08 09:19:21;;;;;;;10.55;3.90;;;32.90;56.10;;;;;;5114340;28;20031;-72
2021/08/08 09:21:48;;;;;;;4.90;3.47;;;33.10;55.70;;;;;;5113589;28;20039;-72
2021/08/08 09:24:35;;;;;;;6.30;3.60;;;33.20;56.10;;;;;;5113589;28;20028;-72
2021/08/08 09:27:07;;;;;;;5.95;3.70;;;33.30;53.50;;;;;;5113945;28;20152;-73
2021/08/08 09:29:40;;;;;;;5.72;3.20;;;33.60;55.00;;;;;;5113612;28;20502;-72
2021/08/08 09:32:07;;;;;;;3.97;3.20;;;33.80;55.00;;;;;;5113542;28;20031;-72
2021/08/08 09:34:35;;;;;;;7.63;3.78;;;33.90;54.50;;;;;;5113841;28;20054;-72
2021/08/08 09:37:04;;;;;;;5.47;3.22;;;33.90;55.10;;;;;;5114334;27;20031;-72
2021/08/08 09:39:35;;;;;;;6.55;3.45;;;34.10;54.40;;;;;;5133605;27;20027;-74
2021/08/08 09:42:14;;;;;;;8.35;4.20;;;34.30;54.40;;;;;;5134147;27;20106;-74
2021/08/08 09:44:56;;;;;;;3.95;3.55;;;34.50;54.90;;;;;;5134191;27;20066;-73
2021/08/08 09:47:37;;;;;;;5.30;3.60;;;34.70;54.60;;;;;;5134034;27;20030;-70
2021/08/08 09:50:06;;;;;;;6.10;3.80;;;34.70;54.10;;;;;;5133480;27;20539;-70
2021/08/08 09:52:34;;;;;;;7.10;3.22;;;34.90;64.70;;;;;;5115574;27;20042;-73
2021/08/08 09:55:01;;;;;;;6.35;3.67;;;35.00;54.60;;;;;;5133164;27;20027;-70
2021/08/08 09:57:40;;;;;;;3.15;2.55;;;35.00;53.00;;;;;;5132732;28;20536;-70
2021/08/08 10:00:08;;;;;;;4.68;3.15;;;35.10;51.80;;;;;;5127741;28;20023;-72
2021/08/08 10:02:34;;;;;;;3.45;2.70;;;35.10;52.70;;;;;;5133872;28;20459;-72
2021/08/08 10:05:00;;;;;;;3.92;2.83;;;35.30;51.60;;;;;;5133924;28;20027;-71
2021/08/08 10:07:29;;;;;;;4.35;2.88;;;35.30;53.80;;;;;;5134182;28;20371;-73
2021/08/08 10:09:58;;;;;;;3.88;2.88;;;35.50;49.50;;;;;;5133955;28;20482;-73
2021/08/08 10:12:34;;;;;;;5.38;2.83;;;35.70;50.90;;;;;;5114855;28;20364;-73
2021/08/08 10:15:01;;;;;;;3.42;2.92;;;35.80;49.90;;;;;;5133642;28;20030;-72
2021/08/08 10:17:28;;;;;;;5.75;3.08;;;35.90;49.50;;;;;;5133325;28;20024;-72
2021/08/08 10:19:55;;;;;;;7.88;3.08;;;36.00;48.80;;;;;;5133425;28;20413;-72
2021/08/08 10:22:25;;;;;;;17.05;3.00;;;36.30;50.10;;;;;;5133602;28;20027;-71
2021/08/08 10:24:58;;;;;;;4.85;2.90;;;36.30;49.90;;;;;;5133827;28;20463;-72
2021/08/08 10:27:24;;;;;;;5.20;2.80;;;36.70;68.90;;;;;;5133460;28;20024;-72
2021/08/08 10:29:52;;;;;;;3.13;2.58;;;36.80;49.20;;;;;;5133995;28;20023;-72
2021/08/08 10:32:18;;;;;;;5.72;2.63;;;36.90;48.10;;;;;;5133705;28;20034;-73
2021/08/08 10:34:44;;;;;;;4.43;2.30;;;37.40;68.70;;;;;;5115168;28;20050;-72
2021/08/08 10:37:11;;;;;;;6.47;2.75;;;;;;;;;;5133648;28;20066;-72
2021/08/08 10:39:43;;;;;;;4.60;2.70;;;37.90;47.70;;;;;;5133667;28;20142;-72
2021/08/08 10:42:09;;;;;;;2.83;2.60;;;39.00;45.70;;;;;;5133510;28;20077;-72
2021/08/08 10:44:54;;;;;;;5.03;2.80;;;39.50;44.80;;;;;;5133569;28;20030;-71
2021/08/08 10:47:28;;;;;;;5.55;2.75;;;40.20;44.50;;;;;;5114990;28;20106;-72
2021/08/08 10:49:55;;;;;;;5.78;2.88;;;40.70;43.70;;;;;;5133338;28;20134;-73
2021/08/08 10:52:20;;;;;;;3.50;2.67;;;41.20;43.50;;;;;;5133412;28;20031;-72
2021/08/08 10:54:48;;;;;;;4.40;2.60;;;41.60;41.10;;;;;;5133248;28;20428;-72
2021/08/08 10:57:20;;;;;;;3.90;2.70;;;42.10;42.50;;;;;;5133185;28;20490;-72
2021/08/08 10:59:51;;;;;;;2.50;2.25;;;42.60;40.90;;;;;;5133414;28;20024;-71
2021/08/08 11:02:28;;;;;;;5.15;3.20;;;42.80;41.00;;;;;;5115866;27;20054;-70
2021/08/08 11:04:55;;;;;;;4.57;2.50;;;43.50;41.10;;;;;;5131323;27;20023;-70
2021/08/08 11:07:28;;;;;;;4.35;2.60;;;43.60;40.70;;;;;;5118224;27;20410;-70
2021/08/08 11:09:55;;;;;;;2.80;2.50;;;43.70;40.30;;;;;;5131249;27;20371;-72
2021/08/08 11:12:40;;;;;;;5.28;3.15;;;44.20;40.60;;;;;;5136649;27;20034;-72
2021/08/08 11:15:10;;;;;;;6.38;3.50;;;44.30;40.50;;;;;;5132876;27;20106;-72
2021/08/08 11:17:36;;;;;;;;;;;44.50;40.60;;;;;;5132162;27;20027;-72
2021/08/08 11:20:04;;;;;;;3.72;2.67;;;44.90;40.20;;;;;;5136819;27;19903;-72
2021/08/08 11:22:30;;;;;;;8.38;3.08;;;45.00;39.70;;;;;;5136731;27;20066;-72
2021/08/08 11:25:23;;;;;;;3.85;3.00;;;45.20;39.90;;;;;;5118379;27;20471;-70
2021/08/08 11:27:54;;;;;;;2.75;2.55;;;45.60;40.00;;;;;;5131620;27;20039;-71
2021/08/08 11:30:20;;;;;;;2.35;2.25;;;45.90;39.20;;;;;;5118134;27;20026;-70
2021/08/08 11:32:49;;;;;;;5.53;2.92;;;46.10;39.20;;;;;;5136603;27;20578;-71
2021/08/08 11:35:16;;;;;;;7.03;2.85;;;;;;;;;;5117650;27;20027;-72
2021/08/08 11:37:48;;;;;;;7.25;2.00;;;46.80;37.60;;;;;;5135815;27;20030;-71
2021/08/08 11:40:25;;;;;;;4.82;2.47;;;47.00;37.00;;;;;;5136520;27;20110;-71
2021/08/08 11:42:56;;;;;;;4.82;2.20;;;47.20;37.50;;;;;;5136334;27;20475;-71
2021/08/08 11:45:36;;;;;;;3.70;2.47;;;47.50;37.40;;;;;;5136439;27;20069;-70
2021/08/08 11:48:03;;;;;;;4.70;2.47;;;47.70;36.80;;;;;;5133673;27;20491;-72
2021/08/08 11:50:30;;;;;;;6.75;2.17;;;47.80;36.90;;;;;;5117880;27;20067;-72
2021/08/08 11:53:00;;;;;;;4.90;2.55;;;48.00;36.90;;;;;;5136216;27;20030;-71
2021/08/08 11:55:29;;;;;;;3.35;2.20;;;48.30;37.40;;;;;;5117807;27;20046;-72
2021/08/08 11:58:05;;;;;;;8.20;3.03;;;48.00;37.10;;;;;;5136111;27;20544;-71
2021/08/08 12:00:35;;;;;;;4.20;2.80;;;47.80;36.80;;;;;;5136014;27;20019;-71
2021/08/08 12:03:01;;;;;;;5.05;2.03;;;48.10;36.70;;;;;;5135948;27;20114;-71
2021/08/08 12:05:28;;;;;;;5.13;2.33;;;48.50;36.60;;;;;;5117448;27;20038;-71
2021/08/08 12:07:54;;;;;;;4.25;2.50;;;48.30;36.50;;;;;;5135601;27;20383;-71
2021/08/08 12:10:28;;;;;;;2.95;2.50;;;49.00;36.60;;;;;;5117400;27;20027;-73
2021/08/08 12:12:54;;;;;;;7.05;3.05;;;49.00;36.40;;;;;;5135469;27;20489;-71
2021/08/08 12:15:31;;;;;;;9.05;2.30;;;49.20;36.60;;;;;;5135802;27;20024;-72
2021/08/08 12:17:59;;;;;;;4.45;2.17;;;49.60;36.50;;;;;;5135498;27;20432;-71
2021/08/08 12:20:32;;;;;;;3.63;2.33;;;50.00;35.40;;;;;;5134855;27;20391;-72
2021/08/08 12:23:25;;;;;;;3.60;2.25;;;49.80;35.10;;;;;;5135641;27;20387;-72
2021/08/08 12:26:01;;;;;;;5.57;2.55;;;50.30;35.80;;;;;;5131194;27;20063;-72
2021/08/08 12:28:27;;;;;;;2.42;1.90;;;50.30;35.10;;;;;;5135580;27;20020;-71
2021/08/08 12:31:10;;;;;;;3.63;2.30;;;50.60;35.70;;;;;;5135482;27;20076;-72
2021/08/08 12:33:36;;;;;;;4.63;2.50;;;51.00;35.90;;;;;;5135443;27;20027;-72
2021/08/08 12:36:14;;;;;;;4.47;2.40;;;50.90;35.30;;;;;;5116929;27;20023;-70
2021/08/08 12:38:50;;;;;;;3.35;2.20;;;;;;;;;;5135368;27;20033;-72
2021/08/08 12:41:35;;;;;;;3.33;2.28;;;;;;;;;;5135250;27;20019;-70
2021/08/08 12:44:02;;;;;;;2.88;2.50;;;;;;;;;;5135134;27;20019;-70
2021/08/08 12:46:39;;;;;;;3.85;2.97;;;51.20;34.70;;;;;;5135158;27;20051;-70
2021/08/08 12:49:06;;;;;;;4.68;2.53;;;;;;;;;;5134718;27;20046;-72
2021/08/08 12:51:32;;;;;;;4.57;2.55;;;51.90;34.90;;;;;;5116535;27;20023;-70
2021/08/08 12:53:58;;;;;;;8.65;2.80;;;51.80;33.90;;;;;;5134925;27;20409;-70
2021/08/08 12:56:25;;;;;;;4.80;2.47;;;51.90;34.30;;;;;;5135029;27;20083;-70
2021/08/08 12:58:51;;;;;;;5.28;2.45;;;52.40;33.70;;;;;;5116491;27;20080;-72
2021/08/08 13:01:29;;;;;;;5.50;3.15;;;52.50;34.20;;;;;;5134786;27;20027;-71
2021/08/08 13:03:55;;;;;;;4.68;2.30;;;52.80;33.60;;;;;;5116387;27;20042;-71
2021/08/08 13:06:23;;;;;;;5.20;3.00;;;52.90;33.20;;;;;;5134753;27;20027;-71
2021/08/08 13:08:49;;;;;;;3.83;2.50;;;53.10;33.20;;;;;;5134699;27;20027;-71
2021/08/08 13:11:15;;;;;;;3.70;2.35;;;53.20;33.10;;;;;;5134925;27;20038;-70
2021/08/08 13:13:41;;;;;;;3.25;2.65;;;53.50;32.90;;;;;;5134597;27;20027;-70
2021/08/08 13:16:07;;;;;;;5.50;2.50;;;53.50;32.70;;;;;;5116129;27;20447;-70
2021/08/08 13:18:33;;;;;;;5.78;2.97;;;53.40;32.90;;;;;;5116019;27;20024;-71
2021/08/08 13:21:01;;;;;;;5.43;2.28;;;53.50;32.60;;;;;;5116135;27;20153;-71
2021/08/08 13:23:27;;;;;;;4.90;2.70;;;53.50;32.20;;;;;;5134313;27;20027;-69
2021/08/08 13:25:53;;;;;;;6.38;2.85;;;53.60;32.60;;;;;;5133754;27;20034;-69
2021/08/08 13:28:19;;;;;;;4.00;2.50;;;53.80;32.20;;;;;;5134040;27;20031;-72
2021/08/08 13:30:47;;;;;;;2.92;2.55;;;53.50;32.20;;;;;;5134382;27;20138;-71
2021/08/08 13:33:13;;;;;;;5.35;2.83;;;53.70;32.10;;;;;;5134320;27;20023;-70
2021/08/08 13:35:39;;;;;;;4.68;2.60;;;53.50;32.20;;;;;;5133362;27;20352;-71
2021/08/08 13:38:05;;;;;;;5.05;2.50;;;53.50;32.30;;;;;;5133935;27;20023;-70
2021/08/08 13:40:31;;;;;;;5.45;2.30;;;53.80;33.40;;;;;;5134202;27;20051;-73
2021/08/08 13:42:57;;;;;;;6.22;2.60;;;53.90;32.60;;;;;;5115710;27;20035;-72
2021/08/08 13:45:23;;;;;;;3.72;2.55;;;54.00;32.40;;;;;;5134156;27;20412;-69
2021/08/08 13:47:49;;;;;;;4.95;2.50;;;54.20;32.20;;;;;;5125199;27;20047;-68
2021/08/08 13:50:17;;;;;;;2.33;2.13;;;54.60;32.10;;;;;;5134030;27;20481;-74
2021/08/08 13:52:43;;;;;;;4.10;2.47;;;54.70;32.00;;;;;;5134012;27;20035;-73
2021/08/08 13:55:10;;;;;;;5.05;2.53;;;54.70;31.50;;;;;;5130378;27;20019;-70